sensor_id;sensor_type;location;lat;lon;timestamp;temperature;humidity
6843;DHT22;3460;52.028;8.916;2024-03-17T00:02:17;3.90;99.90
6843;DHT22;3460;52.028;8.916;2024-03-17T00:04:43;4.10;1.00
6843;DHT22;3460;52.028;8.916;2024-03-17T00:07:11;4.00;99.90
6843;DHT22;3460;52.028;8.916;2024-03-17T00:09:37;3.90;1.00
6843;DHT22;3460;52.028;8.916;2024-03-17T00:12:04;3.80;99.90
6843;DHT22;3460;52.028;8.916;2024-03-17T00:14:30;3.80;99.90
6843;DHT22;3460;52.028;8.916;2024-03-17T00:16:57;3.70;99.90
6843;DHT22;3460;52.028;8.916;2024-03-17T00:19:23;3.70;1.00
6843;DHT22;3460;52.028;8.916;2024-03-17T00:21:51;3.70;1.00
6843;DHT22;3460;52.028;8.916;2024-03-17T00:24:19;3.60;1.00
6843;DHT22;3460;52.028;8.916;2024-03-17T00:26:46;3.60;1.00
6843;DHT22;3460;52.028;8.916;2024-03-17T00:29:12;3.50;1.00
6843;DHT22;3460;52.028;8.916;2024-03-17T00:31:40;3.50;1.00
6843;DHT22;3460;52.028;8.916;2024-03-17T00:34:06;3.50;1.00
6843;DHT22;3460;52.028;8.916;2024-03-17T00:36:33;3.60;17.10
6843;DHT22;3460;52.028;8.916;2024-03-17T00:38:59;3.50;1.00
6843;DHT22;3460;52.028;8.916;2024-03-17T00:41:27;3.50;99.90
6843;DHT22;3460;52.028;8.916;2024-03-17T00:43:53;3.60;99.90
6843;DHT22;3460;52.028;8.916;2024-03-17T00:46:20;3.50;99.90
6843;DHT22;3460;52.028;8.916;2024-03-17T00:48:47;3.40;1.00
6843;DHT22;3460;52.028;8.916;2024-03-17T00:51:14;3.30;92.20
6843;DHT22;3460;52.028;8.916;2024-03-17T00:53:40;3.20;1.00
6843;DHT22;3460;52.028;8.916;2024-03-17T00:56:07;3.20;1.00
6843;DHT22;3460;52.028;8.916;2024-03-17T00:58:34;3.10;1.00
6843;DHT22;3460;52.028;8.916;2024-03-17T01:01:01;3.10;1.00
6843;DHT22;3460;52.028;8.916;2024-03-17T01:03:27;3.30;1.00
6843;DHT22;3460;52.028;8.916;2024-03-17T01:05:54;3.40;99.90
6843;DHT22;3460;52.028;8.916;2024-03-17T01:08:20;3.20;99.90
6843;DHT22;3460;52.028;8.916;2024-03-17T01:10:49;3.10;99.90
6843;DHT22;3460;52.028;8.916;2024-03-17T01:13:16;3.20;1.00
6843;DHT22;3460;52.028;8.916;2024-03-17T01:15:44;3.10;99.90
6843;DHT22;3460;52.028;8.916;2024-03-17T01:18:10;3.10;99.90
6843;DHT22;3460;52.028;8.916;2024-03-17T01:20:38;3.00;99.90
6843;DHT22;3460;52.028;8.916;2024-03-17T01:23:04;2.90;1.00
6843;DHT22;3460;52.028;8.916;2024-03-17T01:25:33;3.00;1.00
6843;DHT22;3460;52.028;8.916;2024-03-17T01:28:01;2.90;1.00
6843;DHT22;3460;52.028;8.916;2024-03-17T01:30:28;2.90;1.00
6843;DHT22;3460;52.028;8.916;2024-03-17T01:32:56;2.80;1.00
6843;DHT22;3460;52.028;8.916;2024-03-17T01:35:23;2.70;1.00
6843;DHT22;3460;52.028;8.916;2024-03-17T01:37:49;2.60;1.00
6843;DHT22;3460;52.028;8.916;2024-03-17T01:40:15;2.60;34.70
6843;DHT22;3460;52.028;8.916;2024-03-17T01:42:41;2.60;99.90
6843;DHT22;3460;52.028;8.916;2024-03-17T01:45:25;2.60;99.90
6843;DHT22;3460;52.028;8.916;2024-03-17T01:47:52;2.50;99.90
6843;DHT22;3460;52.028;8.916;2024-03-17T01:50:20;2.50;99.90
6843;DHT22;3460;52.028;8.916;2024-03-17T01:52:51;2.50;99.90
6843;DHT22;3460;52.028;8.916;2024-03-17T01:55:19;2.40;99.90
6843;DHT22;3460;52.028;8.916;2024-03-17T01:57:45;2.40;99.90
6843;DHT22;3460;52.028;8.916;2024-03-17T02:00:13;2.60;99.90
6843;DHT22;3460;52.028;8.916;2024-03-17T02:02:39;2.50;71.10
6843;DHT22;3460;52.028;8.916;2024-03-17T02:05:07;2.50;26.10
6843;DHT22;3460;52.028;8.916;2024-03-17T02:07:34;2.40;1.00
6843;DHT22;3460;52.028;8.916;2024-03-17T02:10:01;2.30;1.00
6843;DHT22;3460;52.028;8.916;2024-03-17T02:12:29;2.40;99.90
6843;DHT22;3460;52.028;8.916;2024-03-17T02:14:57;2.40;26.80
6843;DHT22;3460;52.028;8.916;2024-03-17T02:17:23;2.40;64.60
6843;DHT22;3460;52.028;8.916;2024-03-17T02:19:51;2.40;67.30
6843;DHT22;3460;52.028;8.916;2024-03-17T02:22:19;2.30;95.80
6843;DHT22;3460;52.028;8.916;2024-03-17T02:24:45;2.30;99.90
6843;DHT22;3460;52.028;8.916;2024-03-17T02:27:12;2.30;99.90
6843;DHT22;3460;52.028;8.916;2024-03-17T02:29:39;2.40;99.90
6843;DHT22;3460;52.028;8.916;2024-03-17T02:32:05;2.30;99.90
6843;DHT22;3460;52.028;8.916;2024-03-17T02:34:33;2.40;99.90
6843;DHT22;3460;52.028;8.916;2024-03-17T02:36:59;2.30;99.90
6843;DHT22;3460;52.028;8.916;2024-03-17T02:39:28;2.20;99.90
6843;DHT22;3460;52.028;8.916;2024-03-17T02:41:59;2.10;99.90
6843;DHT22;3460;52.028;8.916;2024-03-17T02:44:26;2.10;99.90
6843;DHT22;3460;52.028;8.916;2024-03-17T02:46:53;2.10;99.90
6843;DHT22;3460;52.028;8.916;2024-03-17T02:49:20;2.20;99.90
6843;DHT22;3460;52.028;8.916;2024-03-17T02:51:47;2.30;99.90
6843;DHT22;3460;52.028;8.916;2024-03-17T02:54:14;2.30;99.90
6843;DHT22;3460;52.028;8.916;2024-03-17T02:56:42;2.20;99.90
6843;DHT22;3460;52.028;8.916;2024-03-17T02:59:09;2.00;99.90
6843;DHT22;3460;52.028;8.916;2024-03-17T03:01:36;2.00;99.90
6843;DHT22;3460;52.028;8.916;2024-03-17T03:04:03;2.00;99.90
6843;DHT22;3460;52.028;8.916;2024-03-17T03:06:33;1.90;99.90
6843;DHT22;3460;52.028;8.916;2024-03-17T03:09:00;2.10;99.90
6843;DHT22;3460;52.028;8.916;2024-03-17T03:11:26;2.00;99.90
6843;DHT22;3460;52.028;8.916;2024-03-17T03:13:55;2.00;99.90
6843;DHT22;3460;52.028;8.916;2024-03-17T03:16:21;1.90;99.90
6843;DHT22;3460;52.028;8.916;2024-03-17T03:18:50;1.90;99.90
6843;DHT22;3460;52.028;8.916;2024-03-17T03:21:17;1.90;99.90
6843;DHT22;3460;52.028;8.916;2024-03-17T03:23:45;1.90;99.90
6843;DHT22;3460;52.028;8.916;2024-03-17T03:26:12;1.90;99.90
6843;DHT22;3460;52.028;8.916;2024-03-17T03:28:38;1.90;99.90
6843;DHT22;3460;52.028;8.916;2024-03-17T03:31:10;1.90;99.90
6843;DHT22;3460;52.028;8.916;2024-03-17T03:33:39;2.00;99.90
6843;DHT22;3460;52.028;8.916;2024-03-17T03:36:10;2.00;99.90
6843;DHT22;3460;52.028;8.916;2024-03-17T03:38:37;2.00;99.90
6843;DHT22;3460;52.028;8.916;2024-03-17T03:41:08;1.90;99.90
6843;DHT22;3460;52.028;8.916;2024-03-17T03:43:35;1.80;99.90
6843;DHT22;3460;52.028;8.916;2024-03-17T03:46:03;1.80;99.90
6843;DHT22;3460;52.028;8.916;2024-03-17T03:48:32;1.80;99.90
6843;DHT22;3460;52.028;8.916;2024-03-17T03:51:03;1.70;99.90
6843;DHT22;3460;52.028;8.916;2024-03-17T03:53:31;1.70;99.90
6843;DHT22;3460;52.028;8.916;2024-03-17T03:55:58;1.70;99.90
6843;DHT22;3460;52.028;8.916;2024-03-17T03:58:26;1.70;99.90
6843;DHT22;3460;52.028;8.916;2024-03-17T04:00:54;1.70;99.90
6843;DHT22;3460;52.028;8.916;2024-03-17T04:03:21;1.70;99.90
6843;DHT22;3460;52.028;8.916;2024-03-17T04:05:50;1.80;99.90
6843;DHT22;3460;52.028;8.916;2024-03-17T04:08:19;1.80;99.90
6843;DHT22;3460;52.028;8.916;2024-03-17T04:10:49;1.70;99.90
6843;DHT22;3460;52.028;8.916;2024-03-17T04:13:17;1.80;99.90
6843;DHT22;3460;52.028;8.916;2024-03-17T04:15:44;1.90;99.90
6843;DHT22;3460;52.028;8.916;2024-03-17T04:18:11;1.80;99.90
6843;DHT22;3460;52.028;8.916;2024-03-17T04:20:40;1.80;99.90
6843;DHT22;3460;52.028;8.916;2024-03-17T04:23:08;1.80;99.90
6843;DHT22;3460;52.028;8.916;2024-03-17T04:25:35;1.70;99.90
6843;DHT22;3460;52.028;8.916;2024-03-17T04:28:02;1.70;99.90
6843;DHT22;3460;52.028;8.916;2024-03-17T04:30:28;1.70;99.90
6843;DHT22;3460;52.028;8.916;2024-03-17T04:32:56;1.70;99.90
6843;DHT22;3460;52.028;8.916;2024-03-17T04:35:23;1.70;99.90
6843;DHT22;3460;52.028;8.916;2024-03-17T04:37:50;1.70;99.90
6843;DHT22;3460;52.028;8.916;2024-03-17T04:40:18;1.70;99.90
6843;DHT22;3460;52.028;8.916;2024-03-17T04:42:45;1.60;99.90
6843;DHT22;3460;52.028;8.916;2024-03-17T04:45:12;1.70;99.90
6843;DHT22;3460;52.028;8.916;2024-03-17T04:47:39;1.70;99.90
6843;DHT22;3460;52.028;8.916;2024-03-17T04:50:06;1.70;99.90
6843;DHT22;3460;52.028;8.916;2024-03-17T04:52:33;1.60;99.90
6843;DHT22;3460;52.028;8.916;2024-03-17T04:54:59;1.60;99.90
6843;DHT22;3460;52.028;8.916;2024-03-17T04:57:28;1.60;99.90
6843;DHT22;3460;52.028;8.916;2024-03-17T04:59:54;1.70;99.90
6843;DHT22;3460;52.028;8.916;2024-03-17T05:02:21;1.70;99.90
6843;DHT22;3460;52.028;8.916;2024-03-17T05:04:49;1.60;99.90
6843;DHT22;3460;52.028;8.916;2024-03-17T05:07:15;1.60;99.90
6843;DHT22;3460;52.028;8.916;2024-03-17T05:09:42;1.60;99.90
6843;DHT22;3460;52.028;8.916;2024-03-17T05:12:10;1.60;99.90
6843;DHT22;3460;52.028;8.916;2024-03-17T05:14:38;1.50;99.90
6843;DHT22;3460;52.028;8.916;2024-03-17T05:17:05;1.40;99.90
6843;DHT22;3460;52.028;8.916;2024-03-17T05:19:31;1.40;99.90
6843;DHT22;3460;52.028;8.916;2024-03-17T05:21:58;1.50;99.90
6843;DHT22;3460;52.028;8.916;2024-03-17T05:24:26;1.50;99.90
6843;DHT22;3460;52.028;8.916;2024-03-17T05:26:52;1.60;99.90
6843;DHT22;3460;52.028;8.916;2024-03-17T05:29:19;1.60;99.90
6843;DHT22;3460;52.028;8.916;2024-03-17T05:31:49;1.50;99.90
6843;DHT22;3460;52.028;8.916;2024-03-17T05:34:16;1.50;99.90
6843;DHT22;3460;52.028;8.916;2024-03-17T05:36:43;1.60;99.90
6843;DHT22;3460;52.028;8.916;2024-03-17T05:39:12;1.60;99.90
6843;DHT22;3460;52.028;8.916;2024-03-17T05:41:39;1.60;99.90
6843;DHT22;3460;52.028;8.916;2024-03-17T05:44:06;1.60;99.90
6843;DHT22;3460;52.028;8.916;2024-03-17T05:46:33;1.70;99.90
6843;DHT22;3460;52.028;8.916;2024-03-17T05:49:01;1.70;99.90
6843;DHT22;3460;52.028;8.916;2024-03-17T05:51:29;1.70;99.90
6843;DHT22;3460;52.028;8.916;2024-03-17T05:53:56;1.80;99.90
6843;DHT22;3460;52.028;8.916;2024-03-17T05:56:24;1.80;99.90
6843;DHT22;3460;52.028;8.916;2024-03-17T05:58:50;1.70;99.90
6843;DHT22;3460;52.028;8.916;2024-03-17T06:01:17;1.70;99.90
6843;DHT22;3460;52.028;8.916;2024-03-17T06:03:45;1.70;99.90
6843;DHT22;3460;52.028;8.916;2024-03-17T06:06:15;1.80;99.90
6843;DHT22;3460;52.028;8.916;2024-03-17T06:08:42;1.90;99.90
6843;DHT22;3460;52.028;8.916;2024-03-17T06:11:10;1.90;99.90
6843;DHT22;3460;52.028;8.916;2024-03-17T06:13:38;1.90;99.90
6843;DHT22;3460;52.028;8.916;2024-03-17T06:16:05;2.00;99.90
6843;DHT22;3460;52.028;8.916;2024-03-17T06:18:32;2.20;99.90
6843;DHT22;3460;52.028;8.916;2024-03-17T06:20:59;2.20;99.90
6843;DHT22;3460;52.028;8.916;2024-03-17T06:23:28;2.30;99.90
6843;DHT22;3460;52.028;8.916;2024-03-17T06:25:55;2.40;99.90
6843;DHT22;3460;52.028;8.916;2024-03-17T06:28:22;2.40;99.90
6843;DHT22;3460;52.028;8.916;2024-03-17T06:30:56;2.40;99.90
6843;DHT22;3460;52.028;8.916;2024-03-17T06:33:25;2.60;99.90
6843;DHT22;3460;52.028;8.916;2024-03-17T06:35:53;2.60;99.90
6843;DHT22;3460;52.028;8.916;2024-03-17T06:38:19;2.70;99.90
6843;DHT22;3460;52.028;8.916;2024-03-17T06:40:51;2.70;99.90
6843;DHT22;3460;52.028;8.916;2024-03-17T06:43:18;2.80;99.90
6843;DHT22;3460;52.028;8.916;2024-03-17T06:45:54;2.80;99.90
6843;DHT22;3460;52.028;8.916;2024-03-17T06:48:21;2.80;99.90
6843;DHT22;3460;52.028;8.916;2024-03-17T06:50:48;2.90;99.90
6843;DHT22;3460;52.028;8.916;2024-03-17T06:53:15;2.90;99.90
6843;DHT22;3460;52.028;8.916;2024-03-17T06:55:42;3.00;99.90
6843;DHT22;3460;52.028;8.916;2024-03-17T06:58:10;3.00;99.90
6843;DHT22;3460;52.028;8.916;2024-03-17T07:00:37;3.10;99.90
6843;DHT22;3460;52.028;8.916;2024-03-17T07:03:04;3.20;99.90
6843;DHT22;3460;52.028;8.916;2024-03-17T07:05:31;3.30;99.90
6843;DHT22;3460;52.028;8.916;2024-03-17T07:07:59;3.40;99.90
6843;DHT22;3460;52.028;8.916;2024-03-17T07:10:25;3.50;99.90
6843;DHT22;3460;52.028;8.916;2024-03-17T07:12:53;3.60;99.90
6843;DHT22;3460;52.028;8.916;2024-03-17T07:15:21;3.70;99.90
6843;DHT22;3460;52.028;8.916;2024-03-17T07:17:50;3.90;99.90
6843;DHT22;3460;52.028;8.916;2024-03-17T07:20:17;4.00;99.90
6843;DHT22;3460;52.028;8.916;2024-03-17T07:22:43;4.10;99.90
6843;DHT22;3460;52.028;8.916;2024-03-17T07:25:10;4.30;99.90
6843;DHT22;3460;52.028;8.916;2024-03-17T07:27:38;4.40;99.90
6843;DHT22;3460;52.028;8.916;2024-03-17T07:30:06;4.50;99.90
6843;DHT22;3460;52.028;8.916;2024-03-17T07:32:35;4.60;99.90
6843;DHT22;3460;52.028;8.916;2024-03-17T07:35:03;4.70;99.90
6843;DHT22;3460;52.028;8.916;2024-03-17T07:37:30;4.90;70.60
6843;DHT22;3460;52.028;8.916;2024-03-17T07:39:58;5.00;3.40
6843;DHT22;3460;52.028;8.916;2024-03-17T07:42:26;5.20;1.00
6843;DHT22;3460;52.028;8.916;2024-03-17T07:44:53;5.40;1.00
6843;DHT22;3460;52.028;8.916;2024-03-17T07:47:20;5.60;1.00
6843;DHT22;3460;52.028;8.916;2024-03-17T07:49:48;5.70;99.90
6843;DHT22;3460;52.028;8.916;2024-03-17T07:52:15;5.70;99.90
6843;DHT22;3460;52.028;8.916;2024-03-17T07:54:42;5.60;77.60
6843;DHT22;3460;52.028;8.916;2024-03-17T07:57:08;5.70;99.90
6843;DHT22;3460;52.028;8.916;2024-03-17T07:59:35;5.80;1.00
6843;DHT22;3460;52.028;8.916;2024-03-17T08:02:02;5.90;99.90
6843;DHT22;3460;52.028;8.916;2024-03-17T08:04:29;6.20;99.90
6843;DHT22;3460;52.028;8.916;2024-03-17T08:06:58;6.30;1.00
6843;DHT22;3460;52.028;8.916;2024-03-17T08:09:24;6.40;90.20
6843;DHT22;3460;52.028;8.916;2024-03-17T08:11:52;6.60;1.00
6843;DHT22;3460;52.028;8.916;2024-03-17T08:14:19;6.70;1.00
6843;DHT22;3460;52.028;8.916;2024-03-17T08:16:46;6.80;99.90
6843;DHT22;3460;52.028;8.916;2024-03-17T08:19:12;7.00;1.00
6843;DHT22;3460;52.028;8.916;2024-03-17T08:21:39;7.00;74.40
6843;DHT22;3460;52.028;8.916;2024-03-17T08:24:07;7.30;1.00
6843;DHT22;3460;52.028;8.916;2024-03-17T08:26:34;7.40;4.10
6843;DHT22;3460;52.028;8.916;2024-03-17T08:29:01;7.40;99.90
6843;DHT22;3460;52.028;8.916;2024-03-17T08:31:28;7.50;99.90
6843;DHT22;3460;52.028;8.916;2024-03-17T08:33:55;7.60;99.90
6843;DHT22;3460;52.028;8.916;2024-03-17T08:36:22;7.70;99.90
6843;DHT22;3460;52.028;8.916;2024-03-17T08:38:50;7.80;99.90
6843;DHT22;3460;52.028;8.916;2024-03-17T08:41:18;7.90;1.00
6843;DHT22;3460;52.028;8.916;2024-03-17T08:43:45;8.00;1.00
6843;DHT22;3460;52.028;8.916;2024-03-17T08:46:12;8.00;1.00
6843;DHT22;3460;52.028;8.916;2024-03-17T08:48:40;8.00;34.20
6843;DHT22;3460;52.028;8.916;2024-03-17T08:51:08;8.10;99.90
6843;DHT22;3460;52.028;8.916;2024-03-17T08:53:36;8.40;99.90
6843;DHT22;3460;52.028;8.916;2024-03-17T08:56:05;8.60;1.00
6843;DHT22;3460;52.028;8.916;2024-03-17T08:58:35;8.60;1.00
6843;DHT22;3460;52.028;8.916;2024-03-17T09:01:05;8.80;99.90
6843;DHT22;3460;52.028;8.916;2024-03-17T09:03:33;9.00;1.00
6843;DHT22;3460;52.028;8.916;2024-03-17T09:05:59;8.90;1.00
6843;DHT22;3460;52.028;8.916;2024-03-17T09:08:26;8.90;1.00
6843;DHT22;3460;52.028;8.916;2024-03-17T09:10:54;8.70;1.00
6843;DHT22;3460;52.028;8.916;2024-03-17T09:13:21;8.80;99.90
6843;DHT22;3460;52.028;8.916;2024-03-17T09:15:52;8.90;99.90
6843;DHT22;3460;52.028;8.916;2024-03-17T09:18:19;9.10;99.90
6843;DHT22;3460;52.028;8.916;2024-03-17T09:20:46;9.20;1.00
6843;DHT22;3460;52.028;8.916;2024-03-17T09:23:13;9.20;33.00
6843;DHT22;3460;52.028;8.916;2024-03-17T09:25:40;9.50;99.90
6843;DHT22;3460;52.028;8.916;2024-03-17T09:28:07;9.50;1.00
6843;DHT22;3460;52.028;8.916;2024-03-17T09:30:34;9.30;1.00
6843;DHT22;3460;52.028;8.916;2024-03-17T09:33:02;9.30;1.00
6843;DHT22;3460;52.028;8.916;2024-03-17T09:35:30;9.50;78.80
6843;DHT22;3460;52.028;8.916;2024-03-17T09:37:57;9.50;1.00
6843;DHT22;3460;52.028;8.916;2024-03-17T09:40:23;9.60;1.00
6843;DHT22;3460;52.028;8.916;2024-03-17T09:42:50;9.80;1.00
6843;DHT22;3460;52.028;8.916;2024-03-17T09:45:18;9.60;1.00
6843;DHT22;3460;52.028;8.916;2024-03-17T09:47:47;9.30;1.00
6843;DHT22;3460;52.028;8.916;2024-03-17T09:50:15;9.60;1.00
6843;DHT22;3460;52.028;8.916;2024-03-17T09:52:45;9.60;1.00
6843;DHT22;3460;52.028;8.916;2024-03-17T09:55:15;9.80;99.90
6843;DHT22;3460;52.028;8.916;2024-03-17T09:57:43;9.90;99.90
6843;DHT22;3460;52.028;8.916;2024-03-17T10:00:11;10.10;1.00
6843;DHT22;3460;52.028;8.916;2024-03-17T10:02:42;10.30;99.90
6843;DHT22;3460;52.028;8.916;2024-03-17T10:05:20;10.50;1.00
6843;DHT22;3460;52.028;8.916;2024-03-17T10:07:48;10.50;27.40
6843;DHT22;3460;52.028;8.916;2024-03-17T10:10:15;10.50;1.00
6843;DHT22;3460;52.028;8.916;2024-03-17T10:12:43;10.50;1.00
6843;DHT22;3460;52.028;8.916;2024-03-17T10:15:11;10.60;1.00
6843;DHT22;3460;52.028;8.916;2024-03-17T10:17:38;10.60;1.00
6843;DHT22;3460;52.028;8.916;2024-03-17T10:20:12;10.80;1.00
6843;DHT22;3460;52.028;8.916;2024-03-17T10:22:57;10.80;1.00
6843;DHT22;3460;52.028;8.916;2024-03-17T10:25:25;10.90;99.90
6843;DHT22;3460;52.028;8.916;2024-03-17T10:27:52;10.90;99.90
6843;DHT22;3460;52.028;8.916;2024-03-17T10:30:19;10.80;99.90
6843;DHT22;3460;52.028;8.916;2024-03-17T10:32:52;10.80;99.90
6843;DHT22;3460;52.028;8.916;2024-03-17T10:35:28;10.70;91.80
6843;DHT22;3460;52.028;8.916;2024-03-17T10:37:58;10.70;92.70
6843;DHT22;3460;52.028;8.916;2024-03-17T10:40:27;10.60;99.90
6843;DHT22;3460;52.028;8.916;2024-03-17T10:42:55;10.30;99.90
6843;DHT22;3460;52.028;8.916;2024-03-17T10:45:22;10.40;99.90
6843;DHT22;3460;52.028;8.916;2024-03-17T10:47:51;10.50;99.90
6843;DHT22;3460;52.028;8.916;2024-03-17T10:50:19;10.60;99.90
6843;DHT22;3460;52.028;8.916;2024-03-17T10:52:47;10.60;99.90
6843;DHT22;3460;52.028;8.916;2024-03-17T10:55:25;10.60;99.90
6843;DHT22;3460;52.028;8.916;2024-03-17T10:57:53;10.60;91.20
6843;DHT22;3460;52.028;8.916;2024-03-17T11:00:21;10.70;99.90
6843;DHT22;3460;52.028;8.916;2024-03-17T11:02:50;10.80;99.90
6843;DHT22;3460;52.028;8.916;2024-03-17T11:05:20;10.80;99.90
6843;DHT22;3460;52.028;8.916;2024-03-17T11:07:49;10.90;99.90
6843;DHT22;3460;52.028;8.916;2024-03-17T11:10:20;11.20;99.90
6843;DHT22;3460;52.028;8.916;2024-03-17T11:12:49;11.20;97.50
6843;DHT22;3460;52.028;8.916;2024-03-17T11:15:35;11.20;29.90
6843;DHT22;3460;52.028;8.916;2024-03-17T11:18:34;11.10;99.20
6843;DHT22;3460;52.028;8.916;2024-03-17T11:21:03;10.60;99.90
6843;DHT22;3460;52.028;8.916;2024-03-17T11:23:36;10.70;99.90
6843;DHT22;3460;52.028;8.916;2024-03-17T11:26:04;10.80;99.90
6843;DHT22;3460;52.028;8.916;2024-03-17T11:28:47;10.80;99.90
6843;DHT22;3460;52.028;8.916;2024-03-17T11:31:45;10.80;93.30
6843;DHT22;3460;52.028;8.916;2024-03-17T11:34:32;10.80;99.90
6843;DHT22;3460;52.028;8.916;2024-03-17T11:37:00;10.90;99.90
6843;DHT22;3460;52.028;8.916;2024-03-17T11:39:46;10.80;99.90
6843;DHT22;3460;52.028;8.916;2024-03-17T11:42:15;11.00;99.90
6843;DHT22;3460;52.028;8.916;2024-03-17T11:44:44;11.00;98.70
6843;DHT22;3460;52.028;8.916;2024-03-17T11:47:20;11.00;99.90
6843;DHT22;3460;52.028;8.916;2024-03-17T11:49:46;11.10;66.80
6843;DHT22;3460;52.028;8.916;2024-03-17T11:52:15;11.00;99.90
6843;DHT22;3460;52.028;8.916;2024-03-17T11:54:42;11.10;99.90
6843;DHT22;3460;52.028;8.916;2024-03-17T11:57:10;11.10;99.90
6843;DHT22;3460;52.028;8.916;2024-03-17T11:59:37;11.30;99.90
6843;DHT22;3460;52.028;8.916;2024-03-17T12:02:17;11.50;99.90
6843;DHT22;3460;52.028;8.916;2024-03-17T12:04:43;11.50;92.40
6843;DHT22;3460;52.028;8.916;2024-03-17T12:07:12;11.50;99.90
6843;DHT22;3460;52.028;8.916;2024-03-17T12:09:41;11.60;43.70
6843;DHT22;3460;52.028;8.916;2024-03-17T12:12:09;11.60;84.80
6843;DHT22;3460;52.028;8.916;2024-03-17T12:14:35;11.60;26.40
6843;DHT22;3460;52.028;8.916;2024-03-17T12:17:04;11.70;31.70
6843;DHT22;3460;52.028;8.916;2024-03-17T12:19:32;11.60;1.00
6843;DHT22;3460;52.028;8.916;2024-03-17T12:21:59;11.50;1.00
6843;DHT22;3460;52.028;8.916;2024-03-17T12:24:26;11.50;17.90
6843;DHT22;3460;52.028;8.916;2024-03-17T12:26:54;11.60;31.20
6843;DHT22;3460;52.028;8.916;2024-03-17T12:29:26;11.60;1.40
6843;DHT22;3460;52.028;8.916;2024-03-17T12:31:56;11.60;1.00
6843;DHT22;3460;52.028;8.916;2024-03-17T12:34:24;11.50;1.00
6843;DHT22;3460;52.028;8.916;2024-03-17T12:36:54;11.60;1.00
6843;DHT22;3460;52.028;8.916;2024-03-17T12:39:21;11.60;1.00
6843;DHT22;3460;52.028;8.916;2024-03-17T12:42:04;11.60;1.00
6843;DHT22;3460;52.028;8.916;2024-03-17T12:44:32;11.50;1.00
6843;DHT22;3460;52.028;8.916;2024-03-17T12:46:59;11.60;1.00
6843;DHT22;3460;52.028;8.916;2024-03-17T12:49:28;11.80;1.00
6843;DHT22;3460;52.028;8.916;2024-03-17T12:51:55;11.80;1.00
6843;DHT22;3460;52.028;8.916;2024-03-17T12:54:26;11.80;1.00
6843;DHT22;3460;52.028;8.916;2024-03-17T12:57:03;11.80;1.00
6843;DHT22;3460;52.028;8.916;2024-03-17T12:59:48;11.70;1.00
6843;DHT22;3460;52.028;8.916;2024-03-17T13:02:32;11.70;1.00
6843;DHT22;3460;52.028;8.916;2024-03-17T13:05:14;11.70;1.00
6843;DHT22;3460;52.028;8.916;2024-03-17T13:07:42;11.70;1.00
6843;DHT22;3460;52.028;8.916;2024-03-17T13:10:14;11.80;1.00
6843;DHT22;3460;52.028;8.916;2024-03-17T13:12:41;11.80;1.00
6843;DHT22;3460;52.028;8.916;2024-03-17T13:15:12;12.10;1.00
6843;DHT22;3460;52.028;8.916;2024-03-17T13:17:40;12.10;1.00
6843;DHT22;3460;52.028;8.916;2024-03-17T13:20:13;12.00;1.00
6843;DHT22;3460;52.028;8.916;2024-03-17T13:22:42;12.00;1.00
6843;DHT22;3460;52.028;8.916;2024-03-17T13:25:14;11.90;1.00
6843;DHT22;3460;52.028;8.916;2024-03-17T13:27:42;11.90;1.00
6843;DHT22;3460;52.028;8.916;2024-03-17T13:30:09;11.80;1.00
6843;DHT22;3460;52.028;8.916;2024-03-17T13:32:36;11.80;1.00
6843;DHT22;3460;52.028;8.916;2024-03-17T13:35:05;11.70;1.00
6843;DHT22;3460;52.028;8.916;2024-03-17T13:37:34;11.50;1.00
6843;DHT22;3460;52.028;8.916;2024-03-17T13:40:03;11.60;1.00
6843;DHT22;3460;52.028;8.916;2024-03-17T13:42:30;11.60;1.00
6843;DHT22;3460;52.028;8.916;2024-03-17T13:44:57;11.70;1.00
6843;DHT22;3460;52.028;8.916;2024-03-17T13:47:24;11.80;1.00
6843;DHT22;3460;52.028;8.916;2024-03-17T13:49:51;11.80;1.00
6843;DHT22;3460;52.028;8.916;2024-03-17T13:52:18;11.80;1.00
6843;DHT22;3460;52.028;8.916;2024-03-17T13:54:45;11.80;1.00
6843;DHT22;3460;52.028;8.916;2024-03-17T13:57:13;11.90;1.00
6843;DHT22;3460;52.028;8.916;2024-03-17T13:59:41;12.00;1.00
6843;DHT22;3460;52.028;8.916;2024-03-17T14:02:12;12.00;1.00
6843;DHT22;3460;52.028;8.916;2024-03-17T14:04:39;12.00;1.00
6843;DHT22;3460;52.028;8.916;2024-03-17T14:07:06;11.90;1.00
6843;DHT22;3460;52.028;8.916;2024-03-17T14:09:34;11.80;1.00
6843;DHT22;3460;52.028;8.916;2024-03-17T14:12:00;11.80;1.00
6843;DHT22;3460;52.028;8.916;2024-03-17T14:14:29;11.90;1.00
6843;DHT22;3460;52.028;8.916;2024-03-17T14:16:56;11.90;1.00
6843;DHT22;3460;52.028;8.916;2024-03-17T14:19:23;11.80;1.00
6843;DHT22;3460;52.028;8.916;2024-03-17T14:21:50;11.80;1.00
6843;DHT22;3460;52.028;8.916;2024-03-17T14:24:20;11.80;1.00
6843;DHT22;3460;52.028;8.916;2024-03-17T14:26:47;11.90;1.00
6843;DHT22;3460;52.028;8.916;2024-03-17T14:29:14;11.80;1.00
6843;DHT22;3460;52.028;8.916;2024-03-17T14:31:43;11.70;1.00
6843;DHT22;3460;52.028;8.916;2024-03-17T14:34:11;11.80;1.00
6843;DHT22;3460;52.028;8.916;2024-03-17T14:36:38;11.80;1.00
6843;DHT22;3460;52.028;8.916;2024-03-17T14:39:05;11.80;1.00
6843;DHT22;3460;52.028;8.916;2024-03-17T14:41:33;11.80;1.00
6843;DHT22;3460;52.028;8.916;2024-03-17T14:44:01;11.70;1.00
6843;DHT22;3460;52.028;8.916;2024-03-17T14:46:29;11.70;1.00
6843;DHT22;3460;52.028;8.916;2024-03-17T14:48:58;11.80;1.00
6843;DHT22;3460;52.028;8.916;2024-03-17T14:51:25;11.80;1.00
6843;DHT22;3460;52.028;8.916;2024-03-17T14:53:52;11.80;1.00
6843;DHT22;3460;52.028;8.916;2024-03-17T14:56:19;11.80;1.00
6843;DHT22;3460;52.028;8.916;2024-03-17T14:58:46;11.80;1.00
6843;DHT22;3460;52.028;8.916;2024-03-17T15:01:13;11.80;1.00
6843;DHT22;3460;52.028;8.916;2024-03-17T15:03:40;11.80;1.00
6843;DHT22;3460;52.028;8.916;2024-03-17T15:06:12;11.70;1.00
6843;DHT22;3460;52.028;8.916;2024-03-17T15:08:40;11.80;1.00
6843;DHT22;3460;52.028;8.916;2024-03-17T15:11:07;11.70;1.00
6843;DHT22;3460;52.028;8.916;2024-03-17T15:13:35;11.70;1.00
6843;DHT22;3460;52.028;8.916;2024-03-17T15:16:02;11.70;1.00
6843;DHT22;3460;52.028;8.916;2024-03-17T15:18:30;11.80;1.00
6843;DHT22;3460;52.028;8.916;2024-03-17T15:20:57;11.80;1.00
6843;DHT22;3460;52.028;8.916;2024-03-17T15:23:27;11.70;1.00
6843;DHT22;3460;52.028;8.916;2024-03-17T15:26:01;11.70;1.00
6843;DHT22;3460;52.028;8.916;2024-03-17T15:28:33;11.70;1.00
6843;DHT22;3460;52.028;8.916;2024-03-17T15:31:03;11.70;1.00
6843;DHT22;3460;52.028;8.916;2024-03-17T15:33:30;11.70;1.00
6843;DHT22;3460;52.028;8.916;2024-03-17T15:36:00;11.60;1.00
6843;DHT22;3460;52.028;8.916;2024-03-17T15:38:28;11.60;1.00
6843;DHT22;3460;52.028;8.916;2024-03-17T15:40:57;11.60;1.00
6843;DHT22;3460;52.028;8.916;2024-03-17T15:43:23;11.60;1.00
6843;DHT22;3460;52.028;8.916;2024-03-17T15:45:50;11.60;1.00
6843;DHT22;3460;52.028;8.916;2024-03-17T15:48:17;11.60;1.00
6843;DHT22;3460;52.028;8.916;2024-03-17T15:50:44;11.60;1.00
6843;DHT22;3460;52.028;8.916;2024-03-17T15:53:11;11.60;1.00
6843;DHT22;3460;52.028;8.916;2024-03-17T15:55:39;11.60;1.00
6843;DHT22;3460;52.028;8.916;2024-03-17T15:58:06;11.50;1.00
6843;DHT22;3460;52.028;8.916;2024-03-17T16:00:33;11.50;1.00
6843;DHT22;3460;52.028;8.916;2024-03-17T16:03:00;11.50;1.00
6843;DHT22;3460;52.028;8.916;2024-03-17T16:05:28;11.50;1.00
6843;DHT22;3460;52.028;8.916;2024-03-17T16:07:55;11.50;1.00
6843;DHT22;3460;52.028;8.916;2024-03-17T16:10:25;11.50;1.00
6843;DHT22;3460;52.028;8.916;2024-03-17T16:12:56;11.40;1.00
6843;DHT22;3460;52.028;8.916;2024-03-17T16:15:23;11.40;1.00
6843;DHT22;3460;52.028;8.916;2024-03-17T16:17:50;11.40;1.00
6843;DHT22;3460;52.028;8.916;2024-03-17T16:20:46;11.40;1.00
6843;DHT22;3460;52.028;8.916;2024-03-17T16:23:23;11.40;1.00
6843;DHT22;3460;52.028;8.916;2024-03-17T16:25:50;11.30;1.00